sensor_id;sensor_type;location;lat;lon;timestamp;P1;durP1;ratioP1;P2;durP2;ratioP2
75295;SDS011;64623;44.738;37.804;2023-06-14T00:00:59;8.25;;;7.07;;
75295;SDS011;64623;44.738;37.804;2023-06-14T00:02:02;7.78;;;6.97;;
75295;SDS011;64623;44.738;37.804;2023-06-14T00:03:05;9.10;;;6.68;;
75295;SDS011;64623;44.738;37.804;2023-06-14T00:04:08;9.75;;;7.45;;
75295;SDS011;64623;44.738;37.804;2023-06-14T00:05:11;7.68;;;6.90;;
75295;SDS011;64623;44.738;37.804;2023-06-14T00:06:16;7.03;;;6.13;;
75295;SDS011;64623;44.738;37.804;2023-06-14T00:07:21;7.07;;;6.38;;
75295;SDS011;64623;44.738;37.804;2023-06-14T00:08:40;8.27;;;6.07;;
75295;SDS011;64623;44.738;37.804;2023-06-14T00:09:43;7.35;;;6.47;;
75295;SDS011;64623;44.738;37.804;2023-06-14T00:10:46;7.47;;;6.60;;
75295;SDS011;64623;44.738;37.804;2023-06-14T00:11:49;7.40;;;6.35;;
75295;SDS011;64623;44.738;37.804;2023-06-14T00:12:52;8.40;;;6.18;;
75295;SDS011;64623;44.738;37.804;2023-06-14T00:13:55;7.35;;;6.25;;
75295;SDS011;64623;44.738;37.804;2023-06-14T00:14:58;7.68;;;6.10;;
75295;SDS011;64623;44.738;37.804;2023-06-14T00:16:04;7.13;;;6.18;;
75295;SDS011;64623;44.738;37.804;2023-06-14T00:17:07;10.13;;;6.38;;
75295;SDS011;64623;44.738;37.804;2023-06-14T00:18:10;7.30;;;6.45;;
75295;SDS011;64623;44.738;37.804;2023-06-14T00:19:14;7.07;;;6.13;;
75295;SDS011;64623;44.738;37.804;2023-06-14T00:20:18;8.00;;;6.47;;
75295;SDS011;64623;44.738;37.804;2023-06-14T00:21:21;8.63;;;7.15;;
75295;SDS011;64623;44.738;37.804;2023-06-14T00:22:24;7.90;;;6.95;;
75295;SDS011;64623;44.738;37.804;2023-06-14T00:23:27;8.30;;;7.10;;
75295;SDS011;64623;44.738;37.804;2023-06-14T00:24:30;11.02;;;7.53;;
75295;SDS011;64623;44.738;37.804;2023-06-14T00:25:33;8.05;;;6.90;;
75295;SDS011;64623;44.738;37.804;2023-06-14T00:26:36;9.60;;;6.82;;
75295;SDS011;64623;44.738;37.804;2023-06-14T00:27:39;10.18;;;7.80;;
75295;SDS011;64623;44.738;37.804;2023-06-14T00:28:42;12.32;;;8.30;;
75295;SDS011;64623;44.738;37.804;2023-06-14T00:29:45;15.77;;;9.48;;
75295;SDS011;64623;44.738;37.804;2023-06-14T00:30:48;15.32;;;10.05;;
75295;SDS011;64623;44.738;37.804;2023-06-14T00:31:52;16.10;;;9.88;;
75295;SDS011;64623;44.738;37.804;2023-06-14T00:32:55;13.23;;;9.77;;
75295;SDS011;64623;44.738;37.804;2023-06-14T00:33:59;14.80;;;9.43;;
75295;SDS011;64623;44.738;37.804;2023-06-14T00:35:02;13.35;;;9.77;;
75295;SDS011;64623;44.738;37.804;2023-06-14T00:36:05;13.32;;;9.77;;
75295;SDS011;64623;44.738;37.804;2023-06-14T00:37:08;14.30;;;10.38;;
75295;SDS011;64623;44.738;37.804;2023-06-14T00:38:11;15.20;;;9.10;;
75295;SDS011;64623;44.738;37.804;2023-06-14T00:39:15;11.85;;;8.48;;
75295;SDS011;64623;44.738;37.804;2023-06-14T00:40:18;12.50;;;10.48;;
75295;SDS011;64623;44.738;37.804;2023-06-14T00:41:20;13.38;;;10.52;;
75295;SDS011;64623;44.738;37.804;2023-06-14T00:42:27;11.85;;;10.07;;
75295;SDS011;64623;44.738;37.804;2023-06-14T00:43:30;12.98;;;9.55;;
75295;SDS011;64623;44.738;37.804;2023-06-14T00:44:33;12.65;;;10.25;;
75295;SDS011;64623;44.738;37.804;2023-06-14T00:45:36;19.98;;;9.85;;
75295;SDS011;64623;44.738;37.804;2023-06-14T00:46:41;12.52;;;10.02;;
75295;SDS011;64623;44.738;37.804;2023-06-14T00:47:44;12.18;;;9.60;;
75295;SDS011;64623;44.738;37.804;2023-06-14T00:48:48;15.68;;;10.57;;
75295;SDS011;64623;44.738;37.804;2023-06-14T00:49:51;15.23;;;10.85;;
75295;SDS011;64623;44.738;37.804;2023-06-14T00:50:56;16.27;;;11.25;;
75295;SDS011;64623;44.738;37.804;2023-06-14T00:52:00;12.75;;;9.43;;
75295;SDS011;64623;44.738;37.804;2023-06-14T00:53:05;12.75;;;10.40;;
75295;SDS011;64623;44.738;37.804;2023-06-14T00:54:08;13.50;;;10.18;;
75295;SDS011;64623;44.738;37.804;2023-06-14T00:55:11;12.35;;;9.75;;
75295;SDS011;64623;44.738;37.804;2023-06-14T00:56:14;13.82;;;9.63;;
75295;SDS011;64623;44.738;37.804;2023-06-14T00:57:18;13.65;;;9.32;;
75295;SDS011;64623;44.738;37.804;2023-06-14T00:58:23;13.75;;;8.98;;
75295;SDS011;64623;44.738;37.804;2023-06-14T00:59:26;12.55;;;8.82;;
75295;SDS011;64623;44.738;37.804;2023-06-14T01:00:29;11.60;;;7.93;;
75295;SDS011;64623;44.738;37.804;2023-06-14T01:01:32;11.73;;;8.75;;
75295;SDS011;64623;44.738;37.804;2023-06-14T01:02:38;10.27;;;8.32;;
75295;SDS011;64623;44.738;37.804;2023-06-14T01:03:43;12.45;;;9.82;;
75295;SDS011;64623;44.738;37.804;2023-06-14T01:04:48;11.73;;;9.43;;
75295;SDS011;64623;44.738;37.804;2023-06-14T01:05:53;12.02;;;9.20;;
75295;SDS011;64623;44.738;37.804;2023-06-14T01:07:10;11.50;;;9.95;;
75295;SDS011;64623;44.738;37.804;2023-06-14T01:08:24;11.93;;;10.32;;
75295;SDS011;64623;44.738;37.804;2023-06-14T01:10:43;14.75;;;9.95;;
75295;SDS011;64623;44.738;37.804;2023-06-14T01:11:59;10.93;;;9.82;;
75295;SDS011;64623;44.738;37.804;2023-06-14T01:14:24;10.70;;;9.02;;
75295;SDS011;64623;44.738;37.804;2023-06-14T01:15:30;12.23;;;10.43;;
75295;SDS011;64623;44.738;37.804;2023-06-14T01:16:34;12.20;;;9.68;;
75295;SDS011;64623;44.738;37.804;2023-06-14T01:17:38;13.07;;;9.85;;
75295;SDS011;64623;44.738;37.804;2023-06-14T01:18:45;11.80;;;8.98;;
75295;SDS011;64623;44.738;37.804;2023-06-14T01:19:51;11.90;;;9.00;;
75295;SDS011;64623;44.738;37.804;2023-06-14T01:21:00;12.75;;;9.15;;
75295;SDS011;64623;44.738;37.804;2023-06-14T01:22:07;11.85;;;9.48;;
75295;SDS011;64623;44.738;37.804;2023-06-14T01:23:11;11.35;;;8.75;;
75295;SDS011;64623;44.738;37.804;2023-06-14T01:24:17;13.45;;;10.00;;
75295;SDS011;64623;44.738;37.804;2023-06-14T01:25:26;12.00;;;9.63;;
75295;SDS011;64623;44.738;37.804;2023-06-14T01:26:30;12.35;;;9.27;;
75295;SDS011;64623;44.738;37.804;2023-06-14T01:27:34;12.70;;;9.30;;
75295;SDS011;64623;44.738;37.804;2023-06-14T01:28:37;11.73;;;9.27;;
75295;SDS011;64623;44.738;37.804;2023-06-14T01:29:40;11.20;;;9.93;;
75295;SDS011;64623;44.738;37.804;2023-06-14T01:30:50;12.23;;;9.82;;
75295;SDS011;64623;44.738;37.804;2023-06-14T01:31:55;17.15;;;10.13;;
75295;SDS011;64623;44.738;37.804;2023-06-14T01:32:58;13.88;;;10.30;;
75295;SDS011;64623;44.738;37.804;2023-06-14T01:34:02;15.00;;;10.32;;
75295;SDS011;64623;44.738;37.804;2023-06-14T01:35:05;13.25;;;9.68;;
75295;SDS011;64623;44.738;37.804;2023-06-14T01:36:08;11.48;;;9.25;;
75295;SDS011;64623;44.738;37.804;2023-06-14T01:37:11;13.82;;;10.10;;
75295;SDS011;64623;44.738;37.804;2023-06-14T01:38:17;12.63;;;9.32;;
75295;SDS011;64623;44.738;37.804;2023-06-14T01:39:23;12.10;;;9.73;;
75295;SDS011;64623;44.738;37.804;2023-06-14T01:40:26;12.55;;;9.80;;
75295;SDS011;64623;44.738;37.804;2023-06-14T01:41:31;14.43;;;10.07;;
75295;SDS011;64623;44.738;37.804;2023-06-14T01:42:35;12.80;;;9.20;;
75295;SDS011;64623;44.738;37.804;2023-06-14T01:43:39;12.00;;;9.10;;
75295;SDS011;64623;44.738;37.804;2023-06-14T01:44:43;12.02;;;10.60;;
75295;SDS011;64623;44.738;37.804;2023-06-14T01:45:47;12.05;;;9.05;;
75295;SDS011;64623;44.738;37.804;2023-06-14T01:46:53;13.52;;;8.68;;
75295;SDS011;64623;44.738;37.804;2023-06-14T01:47:57;11.73;;;9.00;;
75295;SDS011;64623;44.738;37.804;2023-06-14T01:49:00;11.85;;;10.07;;
75295;SDS011;64623;44.738;37.804;2023-06-14T01:50:03;11.98;;;9.07;;
75295;SDS011;64623;44.738;37.804;2023-06-14T01:51:07;11.57;;;9.18;;
75295;SDS011;64623;44.738;37.804;2023-06-14T01:52:10;12.48;;;8.93;;
75295;SDS011;64623;44.738;37.804;2023-06-14T01:53:13;13.82;;;8.80;;
75295;SDS011;64623;44.738;37.804;2023-06-14T01:54:16;12.15;;;9.30;;
75295;SDS011;64623;44.738;37.804;2023-06-14T01:55:19;11.60;;;9.35;;
75295;SDS011;64623;44.738;37.804;2023-06-14T01:56:24;10.88;;;8.95;;
75295;SDS011;64623;44.738;37.804;2023-06-14T01:57:28;9.98;;;8.80;;
75295;SDS011;64623;44.738;37.804;2023-06-14T01:58:31;10.57;;;8.85;;
75295;SDS011;64623;44.738;37.804;2023-06-14T01:59:35;12.95;;;8.68;;
75295;SDS011;64623;44.738;37.804;2023-06-14T02:00:38;12.18;;;9.70;;
75295;SDS011;64623;44.738;37.804;2023-06-14T02:01:41;12.70;;;9.98;;
75295;SDS011;64623;44.738;37.804;2023-06-14T02:02:44;12.75;;;10.18;;
75295;SDS011;64623;44.738;37.804;2023-06-14T02:03:48;11.90;;;10.60;;
75295;SDS011;64623;44.738;37.804;2023-06-14T02:04:51;11.70;;;10.10;;
75295;SDS011;64623;44.738;37.804;2023-06-14T02:05:54;12.30;;;9.75;;
75295;SDS011;64623;44.738;37.804;2023-06-14T02:06:58;11.25;;;9.15;;
75295;SDS011;64623;44.738;37.804;2023-06-14T02:08:00;12.85;;;9.85;;
75295;SDS011;64623;44.738;37.804;2023-06-14T02:09:03;14.15;;;9.68;;
75295;SDS011;64623;44.738;37.804;2023-06-14T02:10:06;12.80;;;11.15;;
75295;SDS011;64623;44.738;37.804;2023-06-14T02:11:09;10.95;;;9.75;;
75295;SDS011;64623;44.738;37.804;2023-06-14T02:12:12;12.05;;;10.00;;
75295;SDS011;64623;44.738;37.804;2023-06-14T02:13:15;15.70;;;9.68;;
75295;SDS011;64623;44.738;37.804;2023-06-14T02:14:18;12.77;;;9.20;;
75295;SDS011;64623;44.738;37.804;2023-06-14T02:15:21;12.05;;;8.73;;
75295;SDS011;64623;44.738;37.804;2023-06-14T02:16:24;12.40;;;9.50;;
75295;SDS011;64623;44.738;37.804;2023-06-14T02:17:27;12.55;;;8.30;;
75295;SDS011;64623;44.738;37.804;2023-06-14T02:18:29;10.52;;;8.77;;
75295;SDS011;64623;44.738;37.804;2023-06-14T02:19:53;13.02;;;10.57;;
75295;SDS011;64623;44.738;37.804;2023-06-14T02:20:56;13.48;;;10.30;;
75295;SDS011;64623;44.738;37.804;2023-06-14T02:21:58;13.75;;;10.18;;
75295;SDS011;64623;44.738;37.804;2023-06-14T02:23:01;12.75;;;9.77;;
75295;SDS011;64623;44.738;37.804;2023-06-14T02:24:06;13.52;;;10.45;;
75295;SDS011;64623;44.738;37.804;2023-06-14T02:25:09;12.65;;;10.07;;
75295;SDS011;64623;44.738;37.804;2023-06-14T02:26:14;12.57;;;9.73;;
75295;SDS011;64623;44.738;37.804;2023-06-14T02:27:17;11.88;;;9.73;;
75295;SDS011;64623;44.738;37.804;2023-06-14T02:28:20;12.13;;;10.88;;
75295;SDS011;64623;44.738;37.804;2023-06-14T02:29:23;18.15;;;10.15;;
75295;SDS011;64623;44.738;37.804;2023-06-14T02:30:26;15.75;;;10.00;;
75295;SDS011;64623;44.738;37.804;2023-06-14T02:31:31;14.50;;;9.75;;
75295;SDS011;64623;44.738;37.804;2023-06-14T02:32:35;13.40;;;10.32;;
75295;SDS011;64623;44.738;37.804;2023-06-14T02:33:39;14.80;;;10.93;;
75295;SDS011;64623;44.738;37.804;2023-06-14T02:34:42;13.80;;;9.65;;
75295;SDS011;64623;44.738;37.804;2023-06-14T02:35:45;15.45;;;10.00;;
75295;SDS011;64623;44.738;37.804;2023-06-14T02:36:48;14.05;;;10.82;;
75295;SDS011;64623;44.738;37.804;2023-06-14T02:37:52;16.38;;;10.90;;
75295;SDS011;64623;44.738;37.804;2023-06-14T02:38:57;11.55;;;9.60;;
75295;SDS011;64623;44.738;37.804;2023-06-14T02:39:59;12.85;;;10.20;;
75295;SDS011;64623;44.738;37.804;2023-06-14T02:41:03;11.95;;;10.43;;
75295;SDS011;64623;44.738;37.804;2023-06-14T02:42:06;10.45;;;8.80;;
75295;SDS011;64623;44.738;37.804;2023-06-14T02:43:09;12.20;;;10.00;;
75295;SDS011;64623;44.738;37.804;2023-06-14T02:44:13;12.60;;;9.77;;
75295;SDS011;64623;44.738;37.804;2023-06-14T02:45:17;13.18;;;10.10;;
75295;SDS011;64623;44.738;37.804;2023-06-14T02:46:21;12.18;;;10.65;;
75295;SDS011;64623;44.738;37.804;2023-06-14T02:47:24;12.20;;;10.40;;
75295;SDS011;64623;44.738;37.804;2023-06-14T02:48:28;13.35;;;10.57;;
75295;SDS011;64623;44.738;37.804;2023-06-14T02:49:30;13.15;;;10.25;;
75295;SDS011;64623;44.738;37.804;2023-06-14T02:50:33;12.40;;;9.93;;
75295;SDS011;64623;44.738;37.804;2023-06-14T02:51:36;12.88;;;10.43;;
75295;SDS011;64623;44.738;37.804;2023-06-14T02:52:39;11.57;;;10.38;;
75295;SDS011;64623;44.738;37.804;2023-06-14T02:53:44;12.38;;;9.27;;
75295;SDS011;64623;44.738;37.804;2023-06-14T02:54:47;13.45;;;9.07;;
75295;SDS011;64623;44.738;37.804;2023-06-14T02:55:50;15.40;;;9.20;;
75295;SDS011;64623;44.738;37.804;2023-06-14T02:56:54;15.02;;;9.55;;
75295;SDS011;64623;44.738;37.804;2023-06-14T02:57:57;12.55;;;9.95;;
75295;SDS011;64623;44.738;37.804;2023-06-14T02:59:00;12.65;;;9.40;;
75295;SDS011;64623;44.738;37.804;2023-06-14T03:00:05;12.27;;;9.02;;
75295;SDS011;64623;44.738;37.804;2023-06-14T03:01:12;11.30;;;8.40;;
75295;SDS011;64623;44.738;37.804;2023-06-14T03:02:16;13.93;;;10.63;;
75295;SDS011;64623;44.738;37.804;2023-06-14T03:03:20;13.20;;;9.57;;
75295;SDS011;64623;44.738;37.804;2023-06-14T03:04:27;10.82;;;9.65;;
75295;SDS011;64623;44.738;37.804;2023-06-14T03:05:31;12.52;;;10.10;;
75295;SDS011;64623;44.738;37.804;2023-06-14T03:06:35;12.40;;;10.68;;
75295;SDS011;64623;44.738;37.804;2023-06-14T03:07:39;13.55;;;11.05;;
75295;SDS011;64623;44.738;37.804;2023-06-14T03:08:44;14.05;;;10.52;;
75295;SDS011;64623;44.738;37.804;2023-06-14T03:09:50;13.82;;;11.32;;
75295;SDS011;64623;44.738;37.804;2023-06-14T03:10:54;12.63;;;11.23;;
75295;SDS011;64623;44.738;37.804;2023-06-14T03:11:59;15.15;;;9.82;;
75295;SDS011;64623;44.738;37.804;2023-06-14T03:13:02;13.50;;;10.48;;
75295;SDS011;64623;44.738;37.804;2023-06-14T03:14:05;13.25;;;10.43;;
75295;SDS011;64623;44.738;37.804;2023-06-14T03:15:11;15.18;;;10.55;;
75295;SDS011;64623;44.738;37.804;2023-06-14T03:16:19;12.85;;;10.10;;
75295;SDS011;64623;44.738;37.804;2023-06-14T03:17:24;15.48;;;11.80;;
75295;SDS011;64623;44.738;37.804;2023-06-14T03:18:34;15.02;;;11.32;;
75295;SDS011;64623;44.738;37.804;2023-06-14T03:19:39;15.77;;;11.75;;
75295;SDS011;64623;44.738;37.804;2023-06-14T03:20:43;15.90;;;11.40;;
75295;SDS011;64623;44.738;37.804;2023-06-14T03:22:54;16.23;;;13.30;;
75295;SDS011;64623;44.738;37.804;2023-06-14T03:23:57;22.00;;;16.90;;
75295;SDS011;64623;44.738;37.804;2023-06-14T03:25:00;23.45;;;16.23;;
75295;SDS011;64623;44.738;37.804;2023-06-14T03:26:10;22.60;;;18.77;;
75295;SDS011;64623;44.738;37.804;2023-06-14T03:27:16;24.40;;;18.58;;
75295;SDS011;64623;44.738;37.804;2023-06-14T03:28:20;23.98;;;18.40;;
75295;SDS011;64623;44.738;37.804;2023-06-14T03:29:24;23.10;;;17.38;;
75295;SDS011;64623;44.738;37.804;2023-06-14T03:30:27;28.75;;;18.63;;
75295;SDS011;64623;44.738;37.804;2023-06-14T03:31:30;25.25;;;18.63;;
75295;SDS011;64623;44.738;37.804;2023-06-14T03:32:35;23.23;;;16.58;;
75295;SDS011;64623;44.738;37.804;2023-06-14T03:33:39;26.10;;;18.98;;
75295;SDS011;64623;44.738;37.804;2023-06-14T03:34:42;24.25;;;17.15;;
75295;SDS011;64623;44.738;37.804;2023-06-14T03:35:52;23.70;;;16.08;;
75295;SDS011;64623;44.738;37.804;2023-06-14T03:36:56;22.95;;;15.52;;
75295;SDS011;64623;44.738;37.804;2023-06-14T03:38:00;19.52;;;15.05;;
75295;SDS011;64623;44.738;37.804;2023-06-14T03:39:05;18.42;;;13.25;;
75295;SDS011;64623;44.738;37.804;2023-06-14T03:40:09;15.23;;;13.10;;
75295;SDS011;64623;44.738;37.804;2023-06-14T03:41:16;13.38;;;11.77;;
75295;SDS011;64623;44.738;37.804;2023-06-14T03:42:19;18.73;;;12.60;;
75295;SDS011;64623;44.738;37.804;2023-06-14T03:43:22;19.08;;;12.40;;
75295;SDS011;64623;44.738;37.804;2023-06-14T03:44:26;18.77;;;13.73;;
75295;SDS011;64623;44.738;37.804;2023-06-14T03:45:29;24.45;;;16.23;;
75295;SDS011;64623;44.738;37.804;2023-06-14T03:46:34;18.98;;;15.13;;
75295;SDS011;64623;44.738;37.804;2023-06-14T03:47:37;20.27;;;16.45;;
75295;SDS011;64623;44.738;37.804;2023-06-14T03:48:40;23.58;;;17.60;;
75295;SDS011;64623;44.738;37.804;2023-06-14T03:49:43;21.13;;;18.48;;
75295;SDS011;64623;44.738;37.804;2023-06-14T03:50:46;21.10;;;17.27;;
75295;SDS011;64623;44.738;37.804;2023-06-14T03:51:49;22.15;;;16.98;;
75295;SDS011;64623;44.738;37.804;2023-06-14T03:52:56;19.95;;;16.85;;
75295;SDS011;64623;44.738;37.804;2023-06-14T03:53:59;33.22;;;27.08;;
75295;SDS011;64623;44.738;37.804;2023-06-14T03:55:17;22.45;;;14.15;;
75295;SDS011;64623;44.738;37.804;2023-06-14T03:56:23;18.20;;;14.30;;
75295;SDS011;64623;44.738;37.804;2023-06-14T03:57:26;19.33;;;12.55;;
75295;SDS011;64623;44.738;37.804;2023-06-14T03:58:30;16.45;;;14.05;;
75295;SDS011;64623;44.738;37.804;2023-06-14T03:59:33;16.17;;;12.77;;
75295;SDS011;64623;44.738;37.804;2023-06-14T04:00:36;19.60;;;12.57;;
75295;SDS011;64623;44.738;37.804;2023-06-14T04:01:40;18.42;;;12.20;;
75295;SDS011;64623;44.738;37.804;2023-06-14T04:02:50;18.88;;;12.68;;
75295;SDS011;64623;44.738;37.804;2023-06-14T04:03:53;17.38;;;12.85;;
75295;SDS011;64623;44.738;37.804;2023-06-14T04:04:56;24.48;;;13.93;;
75295;SDS011;64623;44.738;37.804;2023-06-14T04:05:59;23.02;;;13.82;;
75295;SDS011;64623;44.738;37.804;2023-06-14T04:07:03;19.48;;;12.65;;
75295;SDS011;64623;44.738;37.804;2023-06-14T04:08:06;21.02;;;13.30;;
75295;SDS011;64623;44.738;37.804;2023-06-14T04:09:11;22.50;;;12.20;;
75295;SDS011;64623;44.738;37.804;2023-06-14T04:10:16;17.83;;;12.32;;
75295;SDS011;64623;44.738;37.804;2023-06-14T04:11:20;23.05;;;12.57;;
75295;SDS011;64623;44.738;37.804;2023-06-14T04:12:23;21.15;;;12.80;;
75295;SDS011;64623;44.738;37.804;2023-06-14T04:13:27;16.23;;;12.98;;
75295;SDS011;64623;44.738;37.804;2023-06-14T04:14:30;18.50;;;13.82;;
75295;SDS011;64623;44.738;37.804;2023-06-14T04:15:35;23.80;;;12.57;;
75295;SDS011;64623;44.738;37.804;2023-06-14T04:16:39;20.88;;;12.80;;
75295;SDS011;64623;44.738;37.804;2023-06-14T04:17:42;14.95;;;12.35;;
75295;SDS011;64623;44.738;37.804;2023-06-14T04:18:47;17.08;;;12.18;;
75295;SDS011;64623;44.738;37.804;2023-06-14T04:19:53;19.20;;;13.40;;
75295;SDS011;64623;44.738;37.804;2023-06-14T04:20:56;20.00;;;13.07;;
75295;SDS011;64623;44.738;37.804;2023-06-14T04:21:59;17.95;;;12.10;;
75295;SDS011;64623;44.738;37.804;2023-06-14T04:23:11;17.52;;;11.43;;
75295;SDS011;64623;44.738;37.804;2023-06-14T04:24:20;19.23;;;11.32;;
75295;SDS011;64623;44.738;37.804;2023-06-14T04:25:25;13.88;;;12.00;;
75295;SDS011;64623;44.738;37.804;2023-06-14T04:26:30;15.48;;;11.10;;
75295;SDS011;64623;44.738;37.804;2023-06-14T04:27:37;16.17;;;10.80;;
75295;SDS011;64623;44.738;37.804;2023-06-14T04:28:40;17.27;;;12.13;;
75295;SDS011;64623;44.738;37.804;2023-06-14T04:29:45;16.33;;;11.45;;
75295;SDS011;64623;44.738;37.804;2023-06-14T04:30:51;14.15;;;11.30;;
75295;SDS011;64623;44.738;37.804;2023-06-14T04:31:55;12.88;;;11.57;;
75295;SDS011;64623;44.738;37.804;2023-06-14T04:33:01;14.40;;;11.63;;
75295;SDS011;64623;44.738;37.804;2023-06-14T04:34:08;17.58;;;12.13;;
75295;SDS011;64623;44.738;37.804;2023-06-14T04:35:22;19.52;;;11.82;;
75295;SDS011;64623;44.738;37.804;2023-06-14T04:36:29;13.55;;;10.57;;
75295;SDS011;64623;44.738;37.804;2023-06-14T04:37:32;11.05;;;9.95;;
75295;SDS011;64623;44.738;37.804;2023-06-14T04:38:36;13.20;;;10.20;;
75295;SDS011;64623;44.738;37.804;2023-06-14T04:39:38;12.82;;;10.95;;
75295;SDS011;64623;44.738;37.804;2023-06-14T04:40:41;15.73;;;10.73;;
75295;SDS011;64623;44.738;37.804;2023-06-14T04:41:51;15.07;;;12.30;;
75295;SDS011;64623;44.738;37.804;2023-06-14T04:42:54;12.90;;;10.80;;
75295;SDS011;64623;44.738;37.804;2023-06-14T04:43:59;17.85;;;12.55;;
75295;SDS011;64623;44.738;37.804;2023-06-14T04:45:07;16.40;;;11.52;;
75295;SDS011;64623;44.738;37.804;2023-06-14T04:46:12;15.82;;;11.45;;
75295;SDS011;64623;44.738;37.804;2023-06-14T04:47:17;16.63;;;11.02;;
75295;SDS011;64623;44.738;37.804;2023-06-14T04:48:20;17.63;;;12.43;;
75295;SDS011;64623;44.738;37.804;2023-06-14T04:49:24;18.52;;;11.70;;
75295;SDS011;64623;44.738;37.804;2023-06-14T04:50:28;15.30;;;10.73;;
75295;SDS011;64623;44.738;37.804;2023-06-14T04:51:31;16.05;;;11.45;;
75295;SDS011;64623;44.738;37.804;2023-06-14T04:52:36;17.90;;;11.38;;
75295;SDS011;64623;44.738;37.804;2023-06-14T04:53:40;12.95;;;11.52;;
75295;SDS011;64623;44.738;37.804;2023-06-14T04:54:43;13.77;;;10.00;;
75295;SDS011;64623;44.738;37.804;2023-06-14T04:55:55;18.58;;;11.15;;
75295;SDS011;64623;44.738;37.804;2023-06-14T04:56:59;14.57;;;11.30;;
75295;SDS011;64623;44.738;37.804;2023-06-14T04:58:02;19.63;;;12.07;;
75295;SDS011;64623;44.738;37.804;2023-06-14T04:59:05;21.52;;;12.77;;
75295;SDS011;64623;44.738;37.804;2023-06-14T05:00:08;19.45;;;12.88;;
75295;SDS011;64623;44.738;37.804;2023-06-14T05:01:14;14.93;;;11.63;;
75295;SDS011;64623;44.738;37.804;2023-06-14T05:02:17;18.00;;;11.43;;
75295;SDS011;64623;44.738;37.804;2023-06-14T05:03:19;16.30;;;11.40;;
75295;SDS011;64623;44.738;37.804;2023-06-14T05:04:23;15.85;;;11.45;;
75295;SDS011;64623;44.738;37.804;2023-06-14T05:05:28;18.30;;;12.10;;
75295;SDS011;64623;44.738;37.804;2023-06-14T05:06:30;16.15;;;10.85;;
75295;SDS011;64623;44.738;37.804;2023-06-14T05:07:33;15.52;;;11.60;;
75295;SDS011;64623;44.738;37.804;2023-06-14T05:08:36;16.00;;;11.18;;
75295;SDS011;64623;44.738;37.804;2023-06-14T05:09:40;13.00;;;10.43;;
75295;SDS011;64623;44.738;37.804;2023-06-14T05:10:43;17.48;;;12.23;;
75295;SDS011;64623;44.738;37.804;2023-06-14T05:11:46;16.73;;;10.98;;
75295;SDS011;64623;44.738;37.804;2023-06-14T05:12:49;17.13;;;11.48;;
75295;SDS011;64623;44.738;37.804;2023-06-14T05:13:53;14.85;;;10.65;;
75295;SDS011;64623;44.738;37.804;2023-06-14T05:14:56;13.57;;;10.38;;
75295;SDS011;64623;44.738;37.804;2023-06-14T05:16:01;13.10;;;10.13;;
75295;SDS011;64623;44.738;37.804;2023-06-14T05:17:04;12.57;;;10.57;;
75295;SDS011;64623;44.738;37.804;2023-06-14T05:18:08;12.75;;;10.70;;
75295;SDS011;64623;44.738;37.804;2023-06-14T05:19:11;11.45;;;9.45;;
75295;SDS011;64623;44.738;37.804;2023-06-14T05:20:14;14.18;;;9.75;;
75295;SDS011;64623;44.738;37.804;2023-06-14T05:21:17;12.13;;;8.80;;
75295;SDS011;64623;44.738;37.804;2023-06-14T05:22:20;13.25;;;9.45;;
75295;SDS011;64623;44.738;37.804;2023-06-14T05:23:23;11.60;;;9.23;;
75295;SDS011;64623;44.738;37.804;2023-06-14T05:24:26;23.73;;;9.88;;
75295;SDS011;64623;44.738;37.804;2023-06-14T05:25:31;18.80;;;9.60;;
75295;SDS011;64623;44.738;37.804;2023-06-14T05:26:34;13.60;;;9.27;;
75295;SDS011;64623;44.738;37.804;2023-06-14T05:27:37;28.23;;;11.68;;
75295;SDS011;64623;44.738;37.804;2023-06-14T05:28:40;17.65;;;9.65;;
75295;SDS011;64623;44.738;37.804;2023-06-14T05:29:43;12.13;;;8.70;;
75295;SDS011;64623;44.738;37.804;2023-06-14T05:30:46;10.88;;;8.63;;
75295;SDS011;64623;44.738;37.804;2023-06-14T05:31:48;22.83;;;9.70;;
75295;SDS011;64623;44.738;37.804;2023-06-14T05:32:52;14.32;;;8.75;;
75295;SDS011;64623;44.738;37.804;2023-06-14T05:33:55;26.20;;;10.38;;
75295;SDS011;64623;44.738;37.804;2023-06-14T05:34:58;17.02;;;8.50;;
75295;SDS011;64623;44.738;37.804;2023-06-14T05:36:00;32.05;;;11.02;;
75295;SDS011;64623;44.738;37.804;2023-06-14T05:37:04;19.27;;;9.10;;
75295;SDS011;64623;44.738;37.804;2023-06-14T05:38:07;15.05;;;8.70;;
75295;SDS011;64623;44.738;37.804;2023-06-14T05:39:10;13.98;;;9.07;;
75295;SDS011;64623;44.738;37.804;2023-06-14T05:40:13;12.30;;;9.13;;
75295;SDS011;64623;44.738;37.804;2023-06-14T05:41:16;15.32;;;9.50;;
75295;SDS011;64623;44.738;37.804;2023-06-14T05:42:19;12.20;;;9.10;;
75295;SDS011;64623;44.738;37.804;2023-06-14T05:43:22;11.65;;;8.82;;
75295;SDS011;64623;44.738;37.804;2023-06-14T05:44:25;11.80;;;9.27;;
75295;SDS011;64623;44.738;37.804;2023-06-14T05:45:28;13.85;;;9.73;;
75295;SDS011;64623;44.738;37.804;2023-06-14T05:46:31;14.38;;;9.25;;
75295;SDS011;64623;44.738;37.804;2023-06-14T05:47:34;9.75;;;7.95;;
75295;SDS011;64623;44.738;37.804;2023-06-14T05:48:37;11.85;;;8.82;;
75295;SDS011;64623;44.738;37.804;2023-06-14T05:49:39;12.07;;;9.88;;
75295;SDS011;64623;44.738;37.804;2023-06-14T05:50:42;9.75;;;8.75;;
75295;SDS011;64623;44.738;37.804;2023-06-14T05:51:45;14.07;;;9.43;;
75295;SDS011;64623;44.738;37.804;2023-06-14T05:52:48;15.40;;;10.20;;
75295;SDS011;64623;44.738;37.804;2023-06-14T05:53:51;16.45;;;10.23;;
75295;SDS011;64623;44.738;37.804;2023-06-14T05:54:54;21.67;;;10.85;;
75295;SDS011;64623;44.738;37.804;2023-06-14T05:55:57;20.13;;;10.82;;
75295;SDS011;64623;44.738;37.804;2023-06-14T05:57:00;22.73;;;10.80;;
75295;SDS011;64623;44.738;37.804;2023-06-14T05:58:03;28.38;;;11.40;;
75295;SDS011;64623;44.738;37.804;2023-06-14T05:59:06;14.63;;;8.65;;
75295;SDS011;64623;44.738;37.804;2023-06-14T06:00:09;18.65;;;9.48;;
75295;SDS011;64623;44.738;37.804;2023-06-14T06:01:17;17.90;;;9.43;;
75295;SDS011;64623;44.738;37.804;2023-06-14T06:02:20;18.65;;;9.18;;
75295;SDS011;64623;44.738;37.804;2023-06-14T06:03:23;26.60;;;10.70;;
75295;SDS011;64623;44.738;37.804;2023-06-14T06:04:26;18.65;;;10.05;;
75295;SDS011;64623;44.738;37.804;2023-06-14T06:05:29;35.85;;;11.35;;
75295;SDS011;64623;44.738;37.804;2023-06-14T06:06:32;25.40;;;10.85;;
75295;SDS011;64623;44.738;37.804;2023-06-14T06:07:35;26.55;;;11.15;;
75295;SDS011;64623;44.738;37.804;2023-06-14T06:08:39;29.35;;;10.07;;
75295;SDS011;64623;44.738;37.804;2023-06-14T06:09:43;28.98;;;10.35;;
75295;SDS011;64623;44.738;37.804;2023-06-14T06:10:46;23.88;;;9.50;;
75295;SDS011;64623;44.738;37.804;2023-06-14T06:11:48;16.95;;;9.18;;
75295;SDS011;64623;44.738;37.804;2023-06-14T06:12:53;27.95;;;9.90;;
75295;SDS011;64623;44.738;37.804;2023-06-14T06:13:56;39.22;;;11.38;;
75295;SDS011;64623;44.738;37.804;2023-06-14T06:14:59;35.33;;;11.15;;
75295;SDS011;64623;44.738;37.804;2023-06-14T06:16:04;22.45;;;9.27;;
75295;SDS011;64623;44.738;37.804;2023-06-14T06:17:07;26.75;;;10.10;;